sensor_id;sensor_type;location;lat;lon;timestamp;pressure;altitude;pressure_sealevel;temperature;humidity
76022;BME280;64718;52.124;6.226;2023-05-07T00:01:32;101649.69;;;14.04;100.00
76022;BME280;64718;52.124;6.226;2023-05-07T00:04:00;101640.88;;;14.07;100.00
76022;BME280;64718;52.124;6.226;2023-05-07T00:06:27;101647.94;;;14.05;100.00
76022;BME280;64718;52.124;6.226;2023-05-07T00:08:54;101650.75;;;14.00;100.00
76022;BME280;64718;52.124;6.226;2023-05-07T00:11:20;101651.47;;;14.04;100.00
76022;BME280;64718;52.124;6.226;2023-05-07T00:13:47;101648.06;;;14.02;100.00
76022;BME280;64718;52.124;6.226;2023-05-07T00:16:14;101656.56;;;14.07;100.00
76022;BME280;64718;52.124;6.226;2023-05-07T00:18:40;101657.34;;;14.09;100.00
76022;BME280;64718;52.124;6.226;2023-05-07T00:21:08;101651.19;;;14.10;100.00
76022;BME280;64718;52.124;6.226;2023-05-07T00:23:35;101644.97;;;14.12;100.00
76022;BME280;64718;52.124;6.226;2023-05-07T00:26:01;101649.22;;;14.15;100.00
76022;BME280;64718;52.124;6.226;2023-05-07T00:28:28;101644.97;;;14.12;100.00
76022;BME280;64718;52.124;6.226;2023-05-07T00:30:54;101644.91;;;14.14;100.00
76022;BME280;64718;52.124;6.226;2023-05-07T00:33:21;101643.34;;;14.10;100.00
76022;BME280;64718;52.124;6.226;2023-05-07T00:35:47;101634.66;;;14.09;100.00
76022;BME280;64718;52.124;6.226;2023-05-07T00:38:15;101639.16;;;14.06;100.00
76022;BME280;64718;52.124;6.226;2023-05-07T00:40:42;101629.63;;;14.05;100.00
76022;BME280;64718;52.124;6.226;2023-05-07T00:43:08;101635.56;;;14.08;100.00
76022;BME280;64718;52.124;6.226;2023-05-07T00:45:35;101624.19;;;14.09;100.00
76022;BME280;64718;52.124;6.226;2023-05-07T00:48:02;101621.78;;;14.05;100.00
76022;BME280;64718;52.124;6.226;2023-05-07T00:50:30;101620.84;;;14.06;100.00
76022;BME280;64718;52.124;6.226;2023-05-07T00:52:58;101619.50;;;13.97;100.00
76022;BME280;64718;52.124;6.226;2023-05-07T00:55:26;101612.63;;;13.95;100.00
76022;BME280;64718;52.124;6.226;2023-05-07T00:57:53;101611.72;;;13.96;100.00
76022;BME280;64718;52.124;6.226;2023-05-07T01:00:19;101600.47;;;13.93;100.00
76022;BME280;64718;52.124;6.226;2023-05-07T01:02:46;101605.00;;;13.90;100.00
76022;BME280;64718;52.124;6.226;2023-05-07T01:05:14;101599.84;;;13.88;100.00
76022;BME280;64718;52.124;6.226;2023-05-07T01:07:42;101602.56;;;13.85;100.00
76022;BME280;64718;52.124;6.226;2023-05-07T01:10:10;101598.25;;;13.84;100.00
76022;BME280;64718;52.124;6.226;2023-05-07T01:12:39;101593.94;;;13.83;100.00
76022;BME280;64718;52.124;6.226;2023-05-07T01:15:08;101592.38;;;13.79;100.00
76022;BME280;64718;52.124;6.226;2023-05-07T01:17:35;101594.97;;;13.79;100.00
76022;BME280;64718;52.124;6.226;2023-05-07T01:20:03;101604.78;;;13.74;100.00
76022;BME280;64718;52.124;6.226;2023-05-07T01:22:32;101599.97;;;13.65;100.00
76022;BME280;64718;52.124;6.226;2023-05-07T01:25:00;101597.69;;;13.57;100.00
76022;BME280;64718;52.124;6.226;2023-05-07T01:27:26;101604.47;;;13.61;100.00
76022;BME280;64718;52.124;6.226;2023-05-07T01:29:53;101595.78;;;13.61;100.00
76022;BME280;64718;52.124;6.226;2023-05-07T01:32:25;101599.38;;;13.58;100.00
76022;BME280;64718;52.124;6.226;2023-05-07T01:34:54;101602.13;;;13.55;100.00
76022;BME280;64718;52.124;6.226;2023-05-07T01:37:22;101613.63;;;13.51;100.00
76022;BME280;64718;52.124;6.226;2023-05-07T01:39:50;101610.44;;;13.45;100.00
76022;BME280;64718;52.124;6.226;2023-05-07T01:42:17;101615.06;;;13.38;100.00
76022;BME280;64718;52.124;6.226;2023-05-07T01:44:43;101612.56;;;13.35;100.00
76022;BME280;64718;52.124;6.226;2023-05-07T01:47:11;101606.72;;;13.28;100.00
76022;BME280;64718;52.124;6.226;2023-05-07T01:49:37;101605.94;;;13.26;100.00
76022;BME280;64718;52.124;6.226;2023-05-07T01:52:04;101602.34;;;13.29;100.00
76022;BME280;64718;52.124;6.226;2023-05-07T01:54:31;101606.63;;;13.32;100.00
76022;BME280;64718;52.124;6.226;2023-05-07T01:56:58;101605.09;;;13.26;100.00
76022;BME280;64718;52.124;6.226;2023-05-07T01:59:25;101615.66;;;13.23;100.00
76022;BME280;64718;52.124;6.226;2023-05-07T02:01:52;101610.31;;;13.26;100.00
76022;BME280;64718;52.124;6.226;2023-05-07T02:04:18;101611.00;;;13.31;100.00
76022;BME280;64718;52.124;6.226;2023-05-07T02:06:45;101607.53;;;13.31;100.00
76022;BME280;64718;52.124;6.226;2023-05-07T02:09:13;101604.88;;;13.32;100.00
76022;BME280;64718;52.124;6.226;2023-05-07T02:11:41;101607.22;;;13.38;100.00
76022;BME280;64718;52.124;6.226;2023-05-07T02:14:09;101613.03;;;13.45;100.00
76022;BME280;64718;52.124;6.226;2023-05-07T02:16:35;101613.75;;;13.48;100.00
76022;BME280;64718;52.124;6.226;2023-05-07T02:19:02;101615.53;;;13.48;100.00
76022;BME280;64718;52.124;6.226;2023-05-07T02:21:28;101614.66;;;13.47;100.00
76022;BME280;64718;52.124;6.226;2023-05-07T02:23:55;101614.59;;;13.49;100.00
76022;BME280;64718;52.124;6.226;2023-05-07T02:26:21;101608.53;;;13.48;100.00
76022;BME280;64718;52.124;6.226;2023-05-07T02:28:48;101615.47;;;13.49;100.00
76022;BME280;64718;52.124;6.226;2023-05-07T02:31:16;101611.94;;;13.50;100.00
76022;BME280;64718;52.124;6.226;2023-05-07T02:33:42;101610.28;;;13.48;100.00
76022;BME280;64718;52.124;6.226;2023-05-07T02:36:11;101606.91;;;13.46;100.00
76022;BME280;64718;52.124;6.226;2023-05-07T02:38:38;101613.81;;;13.47;100.00
76022;BME280;64718;52.124;6.226;2023-05-07T02:41:04;101613.88;;;13.45;100.00
76022;BME280;64718;52.124;6.226;2023-05-07T02:43:31;101607.09;;;13.41;100.00
76022;BME280;64718;52.124;6.226;2023-05-07T02:46:01;101614.22;;;13.38;100.00
76022;BME280;64718;52.124;6.226;2023-05-07T02:48:29;101605.72;;;13.33;100.00
76022;BME280;64718;52.124;6.226;2023-05-07T02:50:56;101608.47;;;13.29;100.00
76022;BME280;64718;52.124;6.226;2023-05-07T02:53:22;101606.84;;;13.25;100.00
76022;BME280;64718;52.124;6.226;2023-05-07T02:55:50;101598.22;;;13.23;100.00
76022;BME280;64718;52.124;6.226;2023-05-07T02:58:17;101600.97;;;13.20;100.00
76022;BME280;64718;52.124;6.226;2023-05-07T03:00:43;101601.88;;;13.19;100.00
76022;BME280;64718;52.124;6.226;2023-05-07T03:03:10;101596.75;;;13.16;100.00
76022;BME280;64718;52.124;6.226;2023-05-07T03:05:38;101600.06;;;13.21;100.00
76022;BME280;64718;52.124;6.226;2023-05-07T03:08:04;101607.09;;;13.19;100.00
76022;BME280;64718;52.124;6.226;2023-05-07T03:10:31;101610.56;;;13.20;100.00
76022;BME280;64718;52.124;6.226;2023-05-07T03:12:57;101613.25;;;13.18;100.00
76022;BME280;64718;52.124;6.226;2023-05-07T03:15:24;101622.78;;;13.19;100.00
76022;BME280;64718;52.124;6.226;2023-05-07T03:17:50;101619.41;;;13.16;100.00
76022;BME280;64718;52.124;6.226;2023-05-07T03:20:17;101618.69;;;13.12;100.00
76022;BME280;64718;52.124;6.226;2023-05-07T03:22:45;101616.06;;;13.12;100.00
76022;BME280;64718;52.124;6.226;2023-05-07T03:25:12;101617.91;;;13.10;100.00
76022;BME280;64718;52.124;6.226;2023-05-07T03:27:39;101617.91;;;13.10;100.00
76022;BME280;64718;52.124;6.226;2023-05-07T03:30:07;101615.47;;;13.06;100.00
76022;BME280;64718;52.124;6.226;2023-05-07T03:32:34;101620.03;;;13.01;100.00
76022;BME280;64718;52.124;6.226;2023-05-07T03:35:01;101607.78;;;13.03;100.00
76022;BME280;64718;52.124;6.226;2023-05-07T03:37:28;101615.00;;;12.96;100.00
76022;BME280;64718;52.124;6.226;2023-05-07T03:39:56;101616.88;;;12.92;100.00
76022;BME280;64718;52.124;6.226;2023-05-07T03:42:22;101613.53;;;12.89;100.00
76022;BME280;64718;52.124;6.226;2023-05-07T03:44:49;101613.53;;;12.89;100.00
76022;BME280;64718;52.124;6.226;2023-05-07T03:47:15;101612.81;;;12.85;100.00
76022;BME280;64718;52.124;6.226;2023-05-07T03:49:42;101617.38;;;12.80;100.00
76022;BME280;64718;52.124;6.226;2023-05-07T03:52:08;101618.41;;;12.76;100.00
76022;BME280;64718;52.124;6.226;2023-05-07T03:54:35;101620.22;;;12.74;100.00
76022;BME280;64718;52.124;6.226;2023-05-07T03:57:03;101616.75;;;12.74;100.00
76022;BME280;64718;52.124;6.226;2023-05-07T03:59:29;101623.03;;;12.68;100.00
76022;BME280;64718;52.124;6.226;2023-05-07T04:01:56;101618.66;;;12.68;100.00
76022;BME280;64718;52.124;6.226;2023-05-07T04:04:22;101618.63;;;12.70;100.00
76022;BME280;64718;52.124;6.226;2023-05-07T04:06:48;101620.38;;;12.70;100.00
76022;BME280;64718;52.124;6.226;2023-05-07T04:09:15;101617.63;;;12.74;100.00
76022;BME280;64718;52.124;6.226;2023-05-07T04:11:42;101631.41;;;12.78;100.00
76022;BME280;64718;52.124;6.226;2023-05-07T04:14:11;101631.03;;;12.87;100.00
76022;BME280;64718;52.124;6.226;2023-05-07T04:16:37;101630.78;;;12.93;100.00
76022;BME280;64718;52.124;6.226;2023-05-07T04:19:04;101634.91;;;12.98;100.00
76022;BME280;64718;52.124;6.226;2023-05-07T04:21:30;101630.34;;;13.04;100.00
76022;BME280;64718;52.124;6.226;2023-05-07T04:23:57;101632.91;;;13.05;100.00
76022;BME280;64718;52.124;6.226;2023-05-07T04:26:23;101634.59;;;13.06;100.00
76022;BME280;64718;52.124;6.226;2023-05-07T04:28:50;101633.69;;;13.07;100.00
76022;BME280;64718;52.124;6.226;2023-05-07T04:31:18;101635.41;;;13.08;100.00
76022;BME280;64718;52.124;6.226;2023-05-07T04:33:45;101630.22;;;13.07;100.00
76022;BME280;64718;52.124;6.226;2023-05-07T04:36:11;101634.53;;;13.08;100.00
76022;BME280;64718;52.124;6.226;2023-05-07T04:38:38;101637.09;;;13.09;100.00
76022;BME280;64718;52.124;6.226;2023-05-07T04:41:05;101640.50;;;13.11;100.00
76022;BME280;64718;52.124;6.226;2023-05-07T04:43:32;101642.25;;;13.11;100.00
76022;BME280;64718;52.124;6.226;2023-05-07T04:45:59;101638.69;;;13.13;100.00
76022;BME280;64718;52.124;6.226;2023-05-07T04:48:27;101636.84;;;13.15;100.00
76022;BME280;64718;52.124;6.226;2023-05-07T04:50:54;101642.91;;;13.16;100.00
76022;BME280;64718;52.124;6.226;2023-05-07T04:53:20;101648.84;;;13.21;100.00
76022;BME280;64718;52.124;6.226;2023-05-07T04:55:47;101635.78;;;13.21;100.00
76022;BME280;64718;52.124;6.226;2023-05-07T04:58:14;101638.94;;;13.29;100.00
76022;BME280;64718;52.124;6.226;2023-05-07T05:00:41;101651.03;;;13.32;100.00
76022;BME280;64718;52.124;6.226;2023-05-07T05:03:07;101644.78;;;13.36;100.00
76022;BME280;64718;52.124;6.226;2023-05-07T05:05:35;101648.97;;;13.40;100.00
76022;BME280;64718;52.124;6.226;2023-05-07T05:08:02;101655.84;;;13.42;100.00
76022;BME280;64718;52.124;6.226;2023-05-07T05:10:28;101667.13;;;13.43;100.00
76022;BME280;64718;52.124;6.226;2023-05-07T05:12:55;101664.47;;;13.44;100.00
76022;BME280;64718;52.124;6.226;2023-05-07T05:15:21;101664.47;;;13.44;100.00
76022;BME280;64718;52.124;6.226;2023-05-07T05:17:48;101660.88;;;13.47;100.00
76022;BME280;64718;52.124;6.226;2023-05-07T05:20:14;101665.38;;;13.43;100.00
76022;BME280;64718;52.124;6.226;2023-05-07T05:22:42;101666.94;;;13.47;100.00
76022;BME280;64718;52.124;6.226;2023-05-07T05:25:09;101671.19;;;13.50;100.00
76022;BME280;64718;52.124;6.226;2023-05-07T05:27:35;101667.72;;;13.49;100.00
76022;BME280;64718;52.124;6.226;2023-05-07T05:30:03;101666.94;;;13.47;100.00
76022;BME280;64718;52.124;6.226;2023-05-07T05:32:30;101676.53;;;13.47;100.00
76022;BME280;64718;52.124;6.226;2023-05-07T05:34:57;101683.47;;;13.48;100.00
76022;BME280;64718;52.124;6.226;2023-05-07T05:37:23;101681.66;;;13.50;100.00
76022;BME280;64718;52.124;6.226;2023-05-07T05:39:51;101679.03;;;13.50;100.00
76022;BME280;64718;52.124;6.226;2023-05-07T05:42:19;101679.81;;;13.52;100.00
76022;BME280;64718;52.124;6.226;2023-05-07T05:44:46;101684.97;;;13.53;100.00
76022;BME280;64718;52.124;6.226;2023-05-07T05:47:13;101685.63;;;13.58;100.00
76022;BME280;64718;52.124;6.226;2023-05-07T05:49:39;101680.47;;;13.57;100.00
76022;BME280;64718;52.124;6.226;2023-05-07T05:52:08;101688.44;;;13.54;100.00
76022;BME280;64718;52.124;6.226;2023-05-07T05:54:34;101692.56;;;13.59;100.00
76022;BME280;64718;52.124;6.226;2023-05-07T05:57:02;101695.91;;;13.63;100.00
76022;BME280;64718;52.124;6.226;2023-05-07T05:59:31;101693.22;;;13.65;100.00
76022;BME280;64718;52.124;6.226;2023-05-07T06:01:57;101691.19;;;13.71;100.00
76022;BME280;64718;52.124;6.226;2023-05-07T06:04:24;101693.69;;;13.74;100.00
76022;BME280;64718;52.124;6.226;2023-05-07T06:06:50;101699.97;;;13.70;100.00
76022;BME280;64718;52.124;6.226;2023-05-07T06:09:17;101701.72;;;13.70;100.00
76022;BME280;64718;52.124;6.226;2023-05-07T06:11:44;101698.47;;;13.65;100.00
76022;BME280;64718;52.124;6.226;2023-05-07T06:14:11;101703.56;;;13.68;100.00
76022;BME280;64718;52.124;6.226;2023-05-07T06:16:38;101708.00;;;13.66;100.00
76022;BME280;64718;52.124;6.226;2023-05-07T06:19:04;101700.03;;;13.69;100.00
76022;BME280;64718;52.124;6.226;2023-05-07T06:21:31;101704.22;;;13.73;100.00
76022;BME280;64718;52.124;6.226;2023-05-07T06:23:57;101705.97;;;13.72;100.00
76022;BME280;64718;52.124;6.226;2023-05-07T06:26:24;101707.69;;;13.73;100.00
76022;BME280;64718;52.124;6.226;2023-05-07T06:28:51;101705.84;;;13.75;100.00
76022;BME280;64718;52.124;6.226;2023-05-07T06:31:19;101706.97;;;13.70;100.00
76022;BME280;64718;52.124;6.226;2023-05-07T06:33:46;101702.63;;;13.69;100.00
76022;BME280;64718;52.124;6.226;2023-05-07T06:36:13;101707.94;;;13.67;100.00
76022;BME280;64718;52.124;6.226;2023-05-07T06:38:39;101708.47;;;13.75;100.00
76022;BME280;64718;52.124;6.226;2023-05-07T06:41:06;101718.59;;;13.83;100.00
76022;BME280;64718;52.124;6.226;2023-05-07T06:43:32;101717.88;;;13.79;100.00
76022;BME280;64718;52.124;6.226;2023-05-07T06:45:59;101722.00;;;13.85;100.00
76022;BME280;64718;52.124;6.226;2023-05-07T06:48:27;101724.81;;;13.80;100.00
76022;BME280;64718;52.124;6.226;2023-05-07T06:50:53;101715.25;;;13.79;100.00
76022;BME280;64718;52.124;6.226;2023-05-07T06:53:21;101720.44;;;13.81;100.00
76022;BME280;64718;52.124;6.226;2023-05-07T06:55:47;101724.03;;;13.78;100.00
76022;BME280;64718;52.124;6.226;2023-05-07T06:58:14;101719.56;;;13.80;100.00
76022;BME280;64718;52.124;6.226;2023-05-07T07:00:40;101716.06;;;13.81;100.00
76022;BME280;64718;52.124;6.226;2023-05-07T07:03:07;101718.78;;;13.78;100.00
76022;BME280;64718;52.124;6.226;2023-05-07T07:05:35;101727.50;;;13.79;100.00
76022;BME280;64718;52.124;6.226;2023-05-07T07:08:01;101729.19;;;13.80;100.00
76022;BME280;64718;52.124;6.226;2023-05-07T07:10:28;101730.03;;;13.80;100.00
76022;BME280;64718;52.124;6.226;2023-05-07T07:12:54;101730.69;;;13.85;100.00
76022;BME280;64718;52.124;6.226;2023-05-07T07:15:21;101727.97;;;13.88;100.00
76022;BME280;64718;52.124;6.226;2023-05-07T07:17:47;101726.16;;;13.90;100.00
76022;BME280;64718;52.124;6.226;2023-05-07T07:20:14;101726.94;;;13.92;100.00
76022;BME280;64718;52.124;6.226;2023-05-07T07:22:42;101730.78;;;14.04;100.00
76022;BME280;64718;52.124;6.226;2023-05-07T07:25:09;101723.00;;;14.03;100.00
76022;BME280;64718;52.124;6.226;2023-05-07T07:27:36;101734.84;;;14.11;100.00
76022;BME280;64718;52.124;6.226;2023-05-07T07:30:04;101733.94;;;14.12;100.00
76022;BME280;64718;52.124;6.226;2023-05-07T07:32:30;101729.88;;;14.05;100.00
76022;BME280;64718;52.124;6.226;2023-05-07T07:34:58;101724.66;;;14.05;100.00
76022;BME280;64718;52.124;6.226;2023-05-07T07:37:25;101731.50;;;14.08;100.00
76022;BME280;64718;52.124;6.226;2023-05-07T07:39:53;101728.91;;;14.08;100.00
76022;BME280;64718;52.124;6.226;2023-05-07T07:42:19;101725.94;;;14.15;100.00
76022;BME280;64718;52.124;6.226;2023-05-07T07:44:46;101732.75;;;14.19;100.00
76022;BME280;64718;52.124;6.226;2023-05-07T07:47:12;101719.31;;;14.27;100.00
76022;BME280;64718;52.124;6.226;2023-05-07T07:49:39;101718.84;;;14.38;100.00
76022;BME280;64718;52.124;6.226;2023-05-07T07:52:05;101729.25;;;14.39;100.00
76022;BME280;64718;52.124;6.226;2023-05-07T07:54:32;101721.53;;;14.36;100.00
76022;BME280;64718;52.124;6.226;2023-05-07T07:57:00;101719.47;;;14.44;100.00
76022;BME280;64718;52.124;6.226;2023-05-07T07:59:26;101720.91;;;14.51;100.00
76022;BME280;64718;52.124;6.226;2023-05-07T08:01:53;101727.44;;;14.62;100.00
76022;BME280;64718;52.124;6.226;2023-05-07T08:04:22;101726.31;;;14.67;100.00
76022;BME280;64718;52.124;6.226;2023-05-07T08:06:48;101732.69;;;14.80;100.00
76022;BME280;64718;52.124;6.226;2023-05-07T08:09:15;101735.16;;;14.83;100.00
76022;BME280;64718;52.124;6.226;2023-05-07T08:11:41;101736.22;;;14.98;100.00
76022;BME280;64718;52.124;6.226;2023-05-07T08:14:09;101737.84;;;15.19;100.00
76022;BME280;64718;52.124;6.226;2023-05-07T08:16:36;101737.56;;;15.26;100.00
76022;BME280;64718;52.124;6.226;2023-05-07T08:19:02;101741.66;;;15.31;100.00
76022;BME280;64718;52.124;6.226;2023-05-07T08:21:29;101736.28;;;15.51;100.00
76022;BME280;64718;52.124;6.226;2023-05-07T08:23:56;101739.22;;;15.64;100.00
76022;BME280;64718;52.124;6.226;2023-05-07T08:26:22;101736.59;;;15.64;100.00
76022;BME280;64718;52.124;6.226;2023-05-07T08:28:49;101738.06;;;15.70;100.00
76022;BME280;64718;52.124;6.226;2023-05-07T08:31:16;101739.78;;;15.88;100.00
76022;BME280;64718;52.124;6.226;2023-05-07T08:33:43;101735.91;;;15.95;100.00
76022;BME280;64718;52.124;6.226;2023-05-07T08:36:09;101737.59;;;16.13;100.00
76022;BME280;64718;52.124;6.226;2023-05-07T08:38:36;101732.94;;;16.36;100.00
76022;BME280;64718;52.124;6.226;2023-05-07T08:41:02;101742.78;;;16.32;100.00
76022;BME280;64718;52.124;6.226;2023-05-07T08:43:31;101741.97;;;16.48;100.00
76022;BME280;64718;52.124;6.226;2023-05-07T08:46:00;101743.31;;;16.72;100.00
76022;BME280;64718;52.124;6.226;2023-05-07T08:48:29;101742.34;;;16.90;100.00
76022;BME280;64718;52.124;6.226;2023-05-07T08:50:57;101742.59;;;17.17;100.00
76022;BME280;64718;52.124;6.226;2023-05-07T08:53:24;101743.09;;;17.39;100.00
76022;BME280;64718;52.124;6.226;2023-05-07T08:55:51;101739.06;;;17.64;100.00
76022;BME280;64718;52.124;6.226;2023-05-07T08:58:17;101743.91;;;17.72;98.79
76022;BME280;64718;52.124;6.226;2023-05-07T09:00:44;101744.19;;;17.67;97.51
76022;BME280;64718;52.124;6.226;2023-05-07T09:03:11;101751.19;;;17.82;97.50
76022;BME280;64718;52.124;6.226;2023-05-07T09:05:40;101748.19;;;18.18;96.32
76022;BME280;64718;52.124;6.226;2023-05-07T09:08:08;101744.78;;;18.02;94.56
76022;BME280;64718;52.124;6.226;2023-05-07T09:10:35;101742.50;;;17.96;97.95
76022;BME280;64718;52.124;6.226;2023-05-07T09:13:02;101750.44;;;18.24;95.59
76022;BME280;64718;52.124;6.226;2023-05-07T09:15:29;101747.72;;;18.26;95.38
76022;BME280;64718;52.124;6.226;2023-05-07T09:17:59;101743.78;;;18.33;94.18
76022;BME280;64718;52.124;6.226;2023-05-07T09:20:27;101745.94;;;18.26;94.61
76022;BME280;64718;52.124;6.226;2023-05-07T09:22:56;101744.34;;;18.38;94.05
76022;BME280;64718;52.124;6.226;2023-05-07T09:25:27;101745.13;;;18.54;94.21
76022;BME280;64718;52.124;6.226;2023-05-07T09:27:54;101743.16;;;18.58;93.82
76022;BME280;64718;52.124;6.226;2023-05-07T09:30:21;101745.06;;;18.70;95.02
76022;BME280;64718;52.124;6.226;2023-05-07T09:32:47;101745.44;;;18.64;94.92
76022;BME280;64718;52.124;6.226;2023-05-07T09:35:15;101750.72;;;18.64;95.93
76022;BME280;64718;52.124;6.226;2023-05-07T09:37:42;101748.63;;;18.55;95.76
76022;BME280;64718;52.124;6.226;2023-05-07T09:40:20;101743.91;;;18.60;96.08
76022;BME280;64718;52.124;6.226;2023-05-07T09:42:46;101741.47;;;18.71;91.67
76022;BME280;64718;52.124;6.226;2023-05-07T09:45:13;101746.09;;;18.82;91.55
76022;BME280;64718;52.124;6.226;2023-05-07T09:47:42;101745.88;;;18.85;89.74
76022;BME280;64718;52.124;6.226;2023-05-07T09:50:12;101741.88;;;19.06;89.60
76022;BME280;64718;52.124;6.226;2023-05-07T09:52:40;101735.38;;;19.26;88.24
76022;BME280;64718;52.124;6.226;2023-05-07T09:55:07;101738.56;;;19.58;87.01
76022;BME280;64718;52.124;6.226;2023-05-07T09:57:36;101740.34;;;19.84;86.29
76022;BME280;64718;52.124;6.226;2023-05-07T10:00:03;101740.16;;;20.13;84.21
76022;BME280;64718;52.124;6.226;2023-05-07T10:02:31;101732.31;;;20.11;84.94
76022;BME280;64718;52.124;6.226;2023-05-07T10:05:01;101745.94;;;19.80;84.57
76022;BME280;64718;52.124;6.226;2023-05-07T10:07:28;101743.09;;;19.56;86.36
76022;BME280;64718;52.124;6.226;2023-05-07T10:09:55;101751.84;;;19.56;85.90
76022;BME280;64718;52.124;6.226;2023-05-07T10:12:23;101751.50;;;19.75;87.04
76022;BME280;64718;52.124;6.226;2023-05-07T10:14:51;101745.81;;;19.81;85.06
76022;BME280;64718;52.124;6.226;2023-05-07T10:17:19;101740.13;;;19.87;86.17
76022;BME280;64718;52.124;6.226;2023-05-07T10:19:46;101747.31;;;19.85;87.23
76022;BME280;64718;52.124;6.226;2023-05-07T10:22:13;101733.91;;;20.14;86.70
76022;BME280;64718;52.124;6.226;2023-05-07T10:24:41;101738.38;;;20.26;84.29
76022;BME280;64718;52.124;6.226;2023-05-07T10:27:12;101735.50;;;20.80;82.15
76022;BME280;64718;52.124;6.226;2023-05-07T10:29:48;101736.16;;;20.83;80.89
76022;BME280;64718;52.124;6.226;2023-05-07T10:32:33;101740.16;;;20.89;81.30
76022;BME280;64718;52.124;6.226;2023-05-07T10:35:04;101737.91;;;20.96;80.12
76022;BME280;64718;52.124;6.226;2023-05-07T10:37:33;101739.75;;;20.82;81.50
76022;BME280;64718;52.124;6.226;2023-05-07T10:40:00;101741.72;;;20.92;80.40
76022;BME280;64718;52.124;6.226;2023-05-07T10:42:27;101746.63;;;20.85;81.40
76022;BME280;64718;52.124;6.226;2023-05-07T10:44:54;101752.16;;;21.06;78.00
76022;BME280;64718;52.124;6.226;2023-05-07T10:47:20;101748.50;;;20.96;76.99
76022;BME280;64718;52.124;6.226;2023-05-07T10:50:23;101742.25;;;20.97;77.84
76022;BME280;64718;52.124;6.226;2023-05-07T10:53:21;101747.16;;;21.51;74.71
76022;BME280;64718;52.124;6.226;2023-05-07T10:55:50;101741.84;;;21.27;74.73
76022;BME280;64718;52.124;6.226;2023-05-07T10:58:23;101740.34;;;21.59;72.58
76022;BME280;64718;52.124;6.226;2023-05-07T11:00:56;101732.34;;;22.18;71.42
76022;BME280;64718;52.124;6.226;2023-05-07T11:03:23;101733.44;;;22.27;68.51
76022;BME280;64718;52.124;6.226;2023-05-07T11:06:08;101732.63;;;22.49;68.06
76022;BME280;64718;52.124;6.226;2023-05-07T11:08:54;101728.63;;;22.54;67.64
76022;BME280;64718;52.124;6.226;2023-05-07T11:14:43;101727.53;;;22.46;65.36
76022;BME280;64718;52.124;6.226;2023-05-07T11:17:11;101728.28;;;22.92;67.36
76022;BME280;64718;52.124;6.226;2023-05-07T11:19:50;101724.31;;;23.41;66.32
76022;BME280;64718;52.124;6.226;2023-05-07T11:22:48;101715.50;;;23.41;65.16
76022;BME280;64718;52.124;6.226;2023-05-07T11:25:17;101710.97;;;23.52;64.04
76022;BME280;64718;52.124;6.226;2023-05-07T11:27:44;101718.94;;;23.09;66.06
76022;BME280;64718;52.124;6.226;2023-05-07T11:30:16;101720.75;;;23.09;66.81
76022;BME280;64718;52.124;6.226;2023-05-07T11:32:47;101722.38;;;22.89;67.77
76022;BME280;64718;52.124;6.226;2023-05-07T11:35:15;101720.56;;;22.89;68.45
76022;BME280;64718;52.124;6.226;2023-05-07T11:37:42;101724.19;;;22.77;68.26
76022;BME280;64718;52.124;6.226;2023-05-07T11:40:10;101720.94;;;22.85;66.44
76022;BME280;64718;52.124;6.226;2023-05-07T11:42:39;101724.91;;;22.90;65.61
76022;BME280;64718;52.124;6.226;2023-05-07T11:45:08;101720.88;;;23.18;66.88
76022;BME280;64718;52.124;6.226;2023-05-07T11:47:35;101727.63;;;23.22;65.58
76022;BME280;64718;52.124;6.226;2023-05-07T11:50:03;101732.72;;;23.46;65.07
76022;BME280;64718;52.124;6.226;2023-05-07T11:52:30;101727.47;;;23.67;63.42
76022;BME280;64718;52.124;6.226;2023-05-07T11:54:58;101734.91;;;23.84;63.03
76022;BME280;64718;52.124;6.226;2023-05-07T11:57:27;101743.31;;;23.89;57.36
76022;BME280;64718;52.124;6.226;2023-05-07T11:59:54;101734.03;;;23.52;57.91
76022;BME280;64718;52.124;6.226;2023-05-07T12:02:20;101728.53;;;23.96;57.83
76022;BME280;64718;52.124;6.226;2023-05-07T12:04:47;101728.50;;;24.17;57.69
76022;BME280;64718;52.124;6.226;2023-05-07T12:07:14;101734.44;;;24.00;55.62
76022;BME280;64718;52.124;6.226;2023-05-07T12:09:42;101725.28;;;24.14;55.23
76022;BME280;64718;52.124;6.226;2023-05-07T12:12:08;101725.22;;;24.04;58.49
76022;BME280;64718;52.124;6.226;2023-05-07T12:14:39;101717.44;;;24.64;54.49
76022;BME280;64718;52.124;6.226;2023-05-07T12:17:06;101719.56;;;24.79;55.46
76022;BME280;64718;52.124;6.226;2023-05-07T12:19:33;101714.69;;;24.44;55.61
76022;BME280;64718;52.124;6.226;2023-05-07T12:22:01;101718.13;;;24.66;58.99
76022;BME280;64718;52.124;6.226;2023-05-07T12:24:28;101716.66;;;24.42;58.40
76022;BME280;64718;52.124;6.226;2023-05-07T12:26:55;101714.25;;;24.18;58.68
76022;BME280;64718;52.124;6.226;2023-05-07T12:29:21;101714.03;;;23.80;59.52
76022;BME280;64718;52.124;6.226;2023-05-07T12:31:50;101727.50;;;23.24;61.26
76022;BME280;64718;52.124;6.226;2023-05-07T12:34:17;101718.69;;;23.23;61.80
76022;BME280;64718;52.124;6.226;2023-05-07T12:36:43;101724.94;;;23.33;59.61
76022;BME280;64718;52.124;6.226;2023-05-07T12:39:10;101728.09;;;23.71;58.50
76022;BME280;64718;52.124;6.226;2023-05-07T12:41:52;101720.97;;;23.71;59.13
76022;BME280;64718;52.124;6.226;2023-05-07T12:44:22;101728.50;;;23.44;59.51
76022;BME280;64718;52.124;6.226;2023-05-07T12:46:48;101731.47;;;23.73;56.64
76022;BME280;64718;52.124;6.226;2023-05-07T12:49:16;101724.34;;;23.73;55.90